sensor_id;sensor_type;location;lat;lon;timestamp;pressure;altitude;pressure_sealevel;temperature;humidity
71361;BME280;59166;48.908;1.870;2023-02-02T00:02:06;101693.19;;;4.72;97.63
71361;BME280;59166;48.908;1.870;2023-02-02T00:07:07;101685.44;;;4.63;98.26
71361;BME280;59166;48.908;1.870;2023-02-02T00:12:09;101677.09;;;4.51;100.00
71361;BME280;59166;48.908;1.870;2023-02-02T00:17:11;101668.16;;;4.44;100.00
71361;BME280;59166;48.908;1.870;2023-02-02T00:22:12;101686.97;;;4.36;100.00
71361;BME280;59166;48.908;1.870;2023-02-02T00:27:13;101681.44;;;4.38;100.00
71361;BME280;59166;48.908;1.870;2023-02-02T00:32:15;101683.66;;;4.34;100.00
71361;BME280;59166;48.908;1.870;2023-02-02T00:37:16;101688.09;;;4.27;100.00
71361;BME280;59166;48.908;1.870;2023-02-02T00:42:17;101690.09;;;4.25;100.00
71361;BME280;59166;48.908;1.870;2023-02-02T00:47:19;101680.88;;;4.13;100.00
71361;BME280;59166;48.908;1.870;2023-02-02T00:52:20;101670.41;;;4.11;100.00
71361;BME280;59166;48.908;1.870;2023-02-02T00:57:21;101662.53;;;4.10;100.00
71361;BME280;59166;48.908;1.870;2023-02-02T01:02:24;101672.41;;;4.09;100.00
71361;BME280;59166;48.908;1.870;2023-02-02T01:07:25;101669.94;;;4.08;100.00
71361;BME280;59166;48.908;1.870;2023-02-02T01:12:26;101657.75;;;4.05;100.00
71361;BME280;59166;48.908;1.870;2023-02-02T01:17:39;101657.56;;;4.07;100.00
71361;BME280;59166;48.908;1.870;2023-02-02T01:22:43;101660.16;;;4.00;100.00
71361;BME280;59166;48.908;1.870;2023-02-02T01:27:44;101655.72;;;3.93;100.00
71361;BME280;59166;48.908;1.870;2023-02-02T01:32:46;101663.19;;;3.83;100.00
71361;BME280;59166;48.908;1.870;2023-02-02T01:37:47;101672.66;;;3.85;100.00
71361;BME280;59166;48.908;1.870;2023-02-02T01:42:47;101681.25;;;3.81;100.00
71361;BME280;59166;48.908;1.870;2023-02-02T01:47:52;101677.66;;;3.74;100.00
71361;BME280;59166;48.908;1.870;2023-02-02T01:52:55;101653.56;;;3.59;100.00
71361;BME280;59166;48.908;1.870;2023-02-02T01:58:01;101659.91;;;3.43;100.00
71361;BME280;59166;48.908;1.870;2023-02-02T02:03:08;101659.13;;;3.35;100.00
71361;BME280;59166;48.908;1.870;2023-02-02T02:08:14;101672.00;;;3.31;100.00
71361;BME280;59166;48.908;1.870;2023-02-02T02:13:17;101668.59;;;3.37;100.00
71361;BME280;59166;48.908;1.870;2023-02-02T02:29:31;101687.31;;;3.14;100.00
71361;BME280;59166;48.908;1.870;2023-02-02T02:34:48;101694.38;;;3.07;100.00
71361;BME280;59166;48.908;1.870;2023-02-02T02:39:55;101691.66;;;3.15;100.00
71361;BME280;59166;48.908;1.870;2023-02-02T02:45:00;101696.13;;;3.23;100.00
71361;BME280;59166;48.908;1.870;2023-02-02T02:50:04;101692.50;;;3.16;100.00
71361;BME280;59166;48.908;1.870;2023-02-02T02:55:06;101682.34;;;3.11;100.00
71361;BME280;59166;48.908;1.870;2023-02-02T03:00:28;101683.41;;;3.02;100.00
71361;BME280;59166;48.908;1.870;2023-02-02T03:05:39;101686.59;;;2.98;100.00
71361;BME280;59166;48.908;1.870;2023-02-02T03:10:44;101679.44;;;2.98;100.00
71361;BME280;59166;48.908;1.870;2023-02-02T03:15:46;101680.38;;;3.05;100.00
71361;BME280;59166;48.908;1.870;2023-02-02T03:20:48;101677.00;;;3.11;100.00
71361;BME280;59166;48.908;1.870;2023-02-02T03:25:49;101684.06;;;3.04;100.00
71361;BME280;59166;48.908;1.870;2023-02-02T03:30:51;101687.13;;;2.93;100.00
71361;BME280;59166;48.908;1.870;2023-02-02T03:35:54;101698.13;;;2.98;100.00
71361;BME280;59166;48.908;1.870;2023-02-02T03:40:55;101699.91;;;3.06;100.00
71361;BME280;59166;48.908;1.870;2023-02-02T03:45:56;101708.50;;;3.16;100.00
71361;BME280;59166;48.908;1.870;2023-02-02T03:50:58;101715.69;;;3.15;100.00
71361;BME280;59166;48.908;1.870;2023-02-02T03:55:59;101705.28;;;3.21;100.00
71361;BME280;59166;48.908;1.870;2023-02-02T04:01:02;101712.53;;;3.35;100.00
71361;BME280;59166;48.908;1.870;2023-02-02T04:06:05;101699.59;;;3.46;100.00
71361;BME280;59166;48.908;1.870;2023-02-02T04:11:08;101709.09;;;3.49;100.00
71361;BME280;59166;48.908;1.870;2023-02-02T04:16:10;101710.03;;;3.56;100.00
71361;BME280;59166;48.908;1.870;2023-02-02T04:21:13;101710.50;;;3.59;100.00
71361;BME280;59166;48.908;1.870;2023-02-02T04:26:13;101712.66;;;3.64;100.00
71361;BME280;59166;48.908;1.870;2023-02-02T04:31:14;101714.22;;;3.73;100.00
71361;BME280;59166;48.908;1.870;2023-02-02T04:36:16;101714.97;;;3.82;100.00
71361;BME280;59166;48.908;1.870;2023-02-02T04:41:18;101713.06;;;3.90;100.00
71361;BME280;59166;48.908;1.870;2023-02-02T04:46:19;101721.25;;;3.89;100.00
71361;BME280;59166;48.908;1.870;2023-02-02T04:51:21;101713.97;;;3.83;100.00
71361;BME280;59166;48.908;1.870;2023-02-02T04:56:22;101716.84;;;3.96;100.00
71361;BME280;59166;48.908;1.870;2023-02-02T05:01:23;101718.88;;;3.94;100.00
71361;BME280;59166;48.908;1.870;2023-02-02T05:06:25;101729.00;;;3.98;100.00
71361;BME280;59166;48.908;1.870;2023-02-02T05:11:26;101737.84;;;3.99;100.00
71361;BME280;59166;48.908;1.870;2023-02-02T05:16:27;101727.25;;;4.05;100.00
71361;BME280;59166;48.908;1.870;2023-02-02T05:21:29;101727.25;;;4.05;100.00
71361;BME280;59166;48.908;1.870;2023-02-02T05:26:30;101731.06;;;4.11;100.00
71361;BME280;59166;48.908;1.870;2023-02-02T05:31:31;101736.88;;;4.14;100.00
71361;BME280;59166;48.908;1.870;2023-02-02T05:36:33;101737.69;;;4.15;100.00
71361;BME280;59166;48.908;1.870;2023-02-02T05:41:34;101735.56;;;4.25;100.00
71361;BME280;59166;48.908;1.870;2023-02-02T05:46:35;101734.03;;;4.31;100.00
71361;BME280;59166;48.908;1.870;2023-02-02T05:51:38;101749.31;;;4.37;100.00
71361;BME280;59166;48.908;1.870;2023-02-02T05:56:40;101746.66;;;4.37;100.00
71361;BME280;59166;48.908;1.870;2023-02-02T06:01:41;101736.97;;;4.36;100.00
71361;BME280;59166;48.908;1.870;2023-02-02T06:06:43;101740.19;;;4.46;100.00
71361;BME280;59166;48.908;1.870;2023-02-02T06:11:44;101742.13;;;4.52;100.00
71361;BME280;59166;48.908;1.870;2023-02-02T06:16:45;101743.16;;;4.51;100.00
71361;BME280;59166;48.908;1.870;2023-02-02T06:21:48;101754.78;;;4.43;100.00
71361;BME280;59166;48.908;1.870;2023-02-02T06:26:48;101754.47;;;4.53;100.00
71361;BME280;59166;48.908;1.870;2023-02-02T06:31:49;101766.41;;;4.65;100.00
71361;BME280;59166;48.908;1.870;2023-02-02T06:36:52;101759.28;;;4.72;100.00
71361;BME280;59166;48.908;1.870;2023-02-02T06:41:52;101770.34;;;4.69;100.00
71361;BME280;59166;48.908;1.870;2023-02-02T06:46:53;101768.97;;;4.73;100.00
71361;BME280;59166;48.908;1.870;2023-02-02T06:51:55;101759.63;;;4.69;100.00
71361;BME280;59166;48.908;1.870;2023-02-02T06:56:56;101768.31;;;4.71;100.00
71361;BME280;59166;48.908;1.870;2023-02-02T07:01:57;101771.53;;;4.81;100.00
71361;BME280;59166;48.908;1.870;2023-02-02T07:06:59;101768.47;;;4.99;100.00
71361;BME280;59166;48.908;1.870;2023-02-02T07:12:00;101766.53;;;4.93;100.00
71361;BME280;59166;48.908;1.870;2023-02-02T07:17:01;101787.47;;;4.89;100.00
71361;BME280;59166;48.908;1.870;2023-02-02T07:22:03;101782.88;;;4.98;100.00
71361;BME280;59166;48.908;1.870;2023-02-02T07:27:04;101792.75;;;4.97;100.00
71361;BME280;59166;48.908;1.870;2023-02-02T07:32:05;101793.28;;;5.07;100.00
71361;BME280;59166;48.908;1.870;2023-02-02T07:37:08;101797.69;;;5.30;100.00
71361;BME280;59166;48.908;1.870;2023-02-02T07:42:10;101790.78;;;5.42;100.00
71361;BME280;59166;48.908;1.870;2023-02-02T07:47:10;101802.34;;;5.42;100.00
71361;BME280;59166;48.908;1.870;2023-02-02T07:52:13;101802.41;;;5.49;100.00
71361;BME280;59166;48.908;1.870;2023-02-02T07:57:15;101791.19;;;5.60;100.00
71361;BME280;59166;48.908;1.870;2023-02-02T08:02:16;101787.16;;;5.70;100.00
71361;BME280;59166;48.908;1.870;2023-02-02T08:07:18;101783.94;;;5.82;100.00
71361;BME280;59166;48.908;1.870;2023-02-02T08:12:19;101800.69;;;5.84;100.00
71361;BME280;59166;48.908;1.870;2023-02-02T08:17:20;101815.69;;;5.99;100.00
71361;BME280;59166;48.908;1.870;2023-02-02T08:22:22;101809.97;;;6.09;100.00
71361;BME280;59166;48.908;1.870;2023-02-02T08:27:23;101814.78;;;6.13;100.00
71361;BME280;59166;48.908;1.870;2023-02-02T08:32:24;101818.34;;;6.20;100.00
71361;BME280;59166;48.908;1.870;2023-02-02T08:37:26;101814.88;;;6.26;100.00
71361;BME280;59166;48.908;1.870;2023-02-02T08:42:27;101831.19;;;6.32;100.00
71361;BME280;59166;48.908;1.870;2023-02-02T08:47:28;101834.16;;;6.37;100.00
71361;BME280;59166;48.908;1.870;2023-02-02T08:52:31;101842.88;;;6.45;100.00
71361;BME280;59166;48.908;1.870;2023-02-02T08:57:32;101838.38;;;6.46;100.00
71361;BME280;59166;48.908;1.870;2023-02-02T09:02:32;101845.84;;;6.50;100.00
71361;BME280;59166;48.908;1.870;2023-02-02T09:07:35;101852.53;;;6.61;100.00
71361;BME280;59166;48.908;1.870;2023-02-02T09:12:35;101846.75;;;6.64;100.00
71361;BME280;59166;48.908;1.870;2023-02-02T09:17:36;101854.19;;;6.68;99.60
71361;BME280;59166;48.908;1.870;2023-02-02T09:22:39;101860.00;;;6.72;100.00
71361;BME280;59166;48.908;1.870;2023-02-02T09:27:40;101865.25;;;6.80;99.11
71361;BME280;59166;48.908;1.870;2023-02-02T09:32:40;101874.16;;;6.87;98.59
71361;BME280;59166;48.908;1.870;2023-02-02T09:37:43;101876.72;;;6.95;97.70
71361;BME280;59166;48.908;1.870;2023-02-02T09:42:53;101881.91;;;7.03;97.20
71361;BME280;59166;48.908;1.870;2023-02-02T09:48:10;101890.41;;;7.07;97.72
71361;BME280;59166;48.908;1.870;2023-02-02T09:53:22;101894.56;;;7.16;97.03
71361;BME280;59166;48.908;1.870;2023-02-02T09:58:29;101892.97;;;7.21;97.50
71361;BME280;59166;48.908;1.870;2023-02-02T10:03:35;101902.09;;;7.34;97.58
71361;BME280;59166;48.908;1.870;2023-02-02T10:08:46;101901.94;;;7.42;96.31
71361;BME280;59166;48.908;1.870;2023-02-02T10:13:49;101909.19;;;7.48;95.76
71361;BME280;59166;48.908;1.870;2023-02-02T10:18:56;101898.69;;;7.53;95.54
71361;BME280;59166;48.908;1.870;2023-02-02T10:24:01;101910.91;;;7.62;94.36
71361;BME280;59166;48.908;1.870;2023-02-02T10:29:10;101906.00;;;7.72;94.76
71361;BME280;59166;48.908;1.870;2023-02-02T10:34:20;101915.34;;;7.89;93.21
71361;BME280;59166;48.908;1.870;2023-02-02T10:39:33;101924.47;;;8.01;91.54
71361;BME280;59166;48.908;1.870;2023-02-02T10:44:55;101923.47;;;8.22;93.79
71361;BME280;59166;48.908;1.870;2023-02-02T10:50:13;101930.72;;;8.28;89.98
71361;BME280;59166;48.908;1.870;2023-02-02T10:55:23;101929.91;;;8.34;91.68
71361;BME280;59166;48.908;1.870;2023-02-02T11:00:46;101927.84;;;8.49;92.48
71361;BME280;59166;48.908;1.870;2023-02-02T11:05:49;101926.41;;;8.53;90.16
71361;BME280;59166;48.908;1.870;2023-02-02T11:10:53;101927.25;;;8.54;89.32
71361;BME280;59166;48.908;1.870;2023-02-02T11:16:22;101928.44;;;8.64;89.58
71361;BME280;59166;48.908;1.870;2023-02-02T11:21:25;101925.97;;;8.76;88.35
71361;BME280;59166;48.908;1.870;2023-02-02T11:26:41;101917.28;;;8.94;88.97
71361;BME280;59166;48.908;1.870;2023-02-02T11:31:43;101916.63;;;9.11;87.88
71361;BME280;59166;48.908;1.870;2023-02-02T11:37:01;101901.84;;;9.27;87.17
71361;BME280;59166;48.908;1.870;2023-02-02T11:42:06;101888.53;;;9.32;85.60
71361;BME280;59166;48.908;1.870;2023-02-02T11:47:19;101881.59;;;9.56;84.25
71361;BME280;59166;48.908;1.870;2023-02-02T11:52:22;101882.31;;;9.76;84.56
71361;BME280;59166;48.908;1.870;2023-02-02T11:57:27;101881.81;;;9.92;83.64
71361;BME280;59166;48.908;1.870;2023-02-02T12:02:29;101883.38;;;9.75;83.70
71361;BME280;59166;48.908;1.870;2023-02-02T12:07:31;101879.25;;;9.66;83.59
71361;BME280;59166;48.908;1.870;2023-02-02T12:12:40;101874.59;;;9.79;82.53
71361;BME280;59166;48.908;1.870;2023-02-02T12:17:44;101870.88;;;9.80;84.80
71361;BME280;59166;48.908;1.870;2023-02-02T12:23:14;101872.06;;;9.91;82.66
71361;BME280;59166;48.908;1.870;2023-02-02T12:28:33;101863.72;;;9.99;83.55
71361;BME280;59166;48.908;1.870;2023-02-02T12:33:42;101855.75;;;10.04;80.08
71361;BME280;59166;48.908;1.870;2023-02-02T12:39:09;101857.22;;;10.31;81.03
71361;BME280;59166;48.908;1.870;2023-02-02T12:44:21;101853.09;;;10.29;80.50
71361;BME280;59166;48.908;1.870;2023-02-02T12:49:38;101849.31;;;10.30;80.64
71361;BME280;59166;48.908;1.870;2023-02-02T12:55:03;101843.56;;;10.26;80.68
71361;BME280;59166;48.908;1.870;2023-02-02T13:00:23;101844.88;;;10.17;80.63
71361;BME280;59166;48.908;1.870;2023-02-02T13:05:41;101832.44;;;10.10;81.67
71361;BME280;59166;48.908;1.870;2023-02-02T13:10:47;101826.25;;;10.09;82.89
71361;BME280;59166;48.908;1.870;2023-02-02T13:15:54;101830.19;;;10.07;83.05
71361;BME280;59166;48.908;1.870;2023-02-02T13:21:01;101830.88;;;10.02;80.92
71361;BME280;59166;48.908;1.870;2023-02-02T13:26:05;101823.41;;;9.98;81.26
71361;BME280;59166;48.908;1.870;2023-02-02T13:31:13;101825.97;;;9.93;82.64
71361;BME280;59166;48.908;1.870;2023-02-02T13:36:20;101828.81;;;9.98;83.46
71361;BME280;59166;48.908;1.870;2023-02-02T13:41:22;101831.38;;;9.93;83.88
71361;BME280;59166;48.908;1.870;2023-02-02T13:46:30;101831.31;;;9.99;85.19
71361;BME280;59166;48.908;1.870;2023-02-02T13:51:52;101840.06;;;9.95;84.78
71361;BME280;59166;48.908;1.870;2023-02-02T13:56:57;101836.75;;;9.93;82.64
71361;BME280;59166;48.908;1.870;2023-02-02T14:02:02;101827.44;;;9.89;80.25
71361;BME280;59166;48.908;1.870;2023-02-02T14:07:05;101833.44;;;9.91;80.14
71361;BME280;59166;48.908;1.870;2023-02-02T14:12:08;101827.16;;;9.97;79.85
71361;BME280;59166;48.908;1.870;2023-02-02T14:17:53;101829.69;;;9.92;80.07
71361;BME280;59166;48.908;1.870;2023-02-02T14:22:54;101834.09;;;9.86;78.34
71361;BME280;59166;48.908;1.870;2023-02-02T14:27:56;101846.78;;;9.86;79.20
71361;BME280;59166;48.908;1.870;2023-02-02T14:33:36;101847.56;;;9.86;80.01
71361;BME280;59166;48.908;1.870;2023-02-02T14:39:09;101847.22;;;9.82;81.03
71361;BME280;59166;48.908;1.870;2023-02-02T14:44:17;101835.78;;;9.80;81.58
71361;BME280;59166;48.908;1.870;2023-02-02T14:49:22;101843.69;;;9.82;79.93
71361;BME280;59166;48.908;1.870;2023-02-02T14:54:28;101843.41;;;9.90;79.98
71361;BME280;59166;48.908;1.870;2023-02-02T14:59:33;101858.34;;;9.93;80.51
71361;BME280;59166;48.908;1.870;2023-02-02T15:04:37;101858.31;;;9.99;79.28
71361;BME280;59166;48.908;1.870;2023-02-02T15:09:38;101857.47;;;9.99;79.50
71361;BME280;59166;48.908;1.870;2023-02-02T15:14:42;101850.16;;;10.06;78.41
71361;BME280;59166;48.908;1.870;2023-02-02T15:19:48;101855.94;;;10.09;79.46
71361;BME280;59166;48.908;1.870;2023-02-02T15:24:50;101860.91;;;10.12;79.88
71361;BME280;59166;48.908;1.870;2023-02-02T15:29:57;101870.53;;;10.02;79.54
71361;BME280;59166;48.908;1.870;2023-02-02T15:35:04;101869.31;;;9.98;81.23
71361;BME280;59166;48.908;1.870;2023-02-02T15:40:13;101879.75;;;9.88;82.33
71361;BME280;59166;48.908;1.870;2023-02-02T15:45:33;101882.09;;;9.77;81.90
71361;BME280;59166;48.908;1.870;2023-02-02T15:50:35;101889.00;;;9.67;81.01
71361;BME280;59166;48.908;1.870;2023-02-02T15:55:37;101901.91;;;9.65;82.18
71361;BME280;59166;48.908;1.870;2023-02-02T16:00:38;101901.06;;;9.64;83.28
71361;BME280;59166;48.908;1.870;2023-02-02T16:05:44;101905.22;;;9.60;82.51
71361;BME280;59166;48.908;1.870;2023-02-02T16:10:46;101910.88;;;9.59;82.84
71361;BME280;59166;48.908;1.870;2023-02-02T16:15:54;101914.63;;;9.51;83.72
71361;BME280;59166;48.908;1.870;2023-02-02T16:20:58;101919.38;;;9.49;82.42
71361;BME280;59166;48.908;1.870;2023-02-02T16:26:02;101921.44;;;9.54;82.07
71361;BME280;59166;48.908;1.870;2023-02-02T16:31:05;101937.25;;;9.44;82.52
71361;BME280;59166;48.908;1.870;2023-02-02T16:36:28;101942.25;;;9.40;83.31
71361;BME280;59166;48.908;1.870;2023-02-02T16:41:30;101938.75;;;9.33;83.75
71361;BME280;59166;48.908;1.870;2023-02-02T16:46:43;101948.94;;;9.24;84.73
71361;BME280;59166;48.908;1.870;2023-02-02T16:51:47;101954.75;;;9.21;84.38
71361;BME280;59166;48.908;1.870;2023-02-02T16:56:58;101967.00;;;9.17;84.35
71361;BME280;59166;48.908;1.870;2023-02-02T17:02:03;101970.53;;;9.18;85.29
71361;BME280;59166;48.908;1.870;2023-02-02T17:07:08;101978.63;;;9.11;85.61
71361;BME280;59166;48.908;1.870;2023-02-02T17:12:22;101985.25;;;9.02;86.30
71361;BME280;59166;48.908;1.870;2023-02-02T17:17:24;101985.47;;;9.01;86.98
71361;BME280;59166;48.908;1.870;2023-02-02T17:22:27;101983.41;;;9.03;85.39
71361;BME280;59166;48.908;1.870;2023-02-02T17:27:30;101986.31;;;9.01;85.06
71361;BME280;59166;48.908;1.870;2023-02-02T17:32:31;101989.22;;;9.00;85.06
71361;BME280;59166;48.908;1.870;2023-02-02T17:37:33;101986.31;;;8.95;86.50
71361;BME280;59166;48.908;1.870;2023-02-02T17:42:34;101993.78;;;8.93;85.63
71361;BME280;59166;48.908;1.870;2023-02-02T17:47:35;101989.22;;;8.93;86.44
71361;BME280;59166;48.908;1.870;2023-02-02T17:52:37;101981.75;;;8.89;85.63
71361;BME280;59166;48.908;1.870;2023-02-02T17:57:38;101988.78;;;8.83;85.81
71361;BME280;59166;48.908;1.870;2023-02-02T18:02:39;101986.94;;;8.90;85.35
71361;BME280;59166;48.908;1.870;2023-02-02T18:07:42;101984.84;;;8.92;84.38
71361;BME280;59166;48.908;1.870;2023-02-02T18:12:43;101976.56;;;8.94;84.98
71361;BME280;59166;48.908;1.870;2023-02-02T18:17:43;101983.00;;;8.93;85.44
71361;BME280;59166;48.908;1.870;2023-02-02T18:22:46;101978.25;;;8.95;85.32
71361;BME280;59166;48.908;1.870;2023-02-02T18:27:47;101984.03;;;8.92;84.25
71361;BME280;59166;48.908;1.870;2023-02-02T18:32:47;101984.44;;;8.89;85.47
71361;BME280;59166;48.908;1.870;2023-02-02T18:37:50;101986.91;;;8.83;84.48
71361;BME280;59166;48.908;1.870;2023-02-02T18:42:50;101991.47;;;8.83;85.81
71361;BME280;59166;48.908;1.870;2023-02-02T18:47:51;101988.78;;;8.83;85.78
71361;BME280;59166;48.908;1.870;2023-02-02T18:52:53;101986.50;;;8.80;85.85
71361;BME280;59166;48.908;1.870;2023-02-02T18:57:54;101998.09;;;8.74;85.45
71361;BME280;59166;48.908;1.870;2023-02-02T19:02:55;102004.28;;;8.74;85.22
71361;BME280;59166;48.908;1.870;2023-02-02T19:07:57;101998.09;;;8.74;85.85
71361;BME280;59166;48.908;1.870;2023-02-02T19:13:08;101998.09;;;8.74;86.60
71361;BME280;59166;48.908;1.870;2023-02-02T19:18:13;101990.41;;;8.64;87.42
71361;BME280;59166;48.908;1.870;2023-02-02T19:23:17;101992.72;;;8.61;87.81
71361;BME280;59166;48.908;1.870;2023-02-02T19:28:21;102003.28;;;8.62;87.83
71361;BME280;59166;48.908;1.870;2023-02-02T19:33:30;102001.81;;;8.60;88.21
71361;BME280;59166;48.908;1.870;2023-02-02T19:38:34;102002.00;;;8.58;87.85
71361;BME280;59166;48.908;1.870;2023-02-02T19:43:35;102006.16;;;8.54;87.62
71361;BME280;59166;48.908;1.870;2023-02-02T19:48:37;102005.97;;;8.56;88.10
71361;BME280;59166;48.908;1.870;2023-02-02T19:53:39;102009.06;;;8.53;87.94
71361;BME280;59166;48.908;1.870;2023-02-02T19:58:40;101998.28;;;8.53;87.93
71361;BME280;59166;48.908;1.870;2023-02-02T20:03:41;102003.44;;;8.48;88.70
71361;BME280;59166;48.908;1.870;2023-02-02T20:08:43;102006.78;;;8.50;87.50
71361;BME280;59166;48.908;1.870;2023-02-02T20:13:45;102004.91;;;8.44;87.82
71361;BME280;59166;48.908;1.870;2023-02-02T20:18:49;102007.38;;;8.45;87.33
71361;BME280;59166;48.908;1.870;2023-02-02T20:23:52;102018.38;;;8.44;85.88
71361;BME280;59166;48.908;1.870;2023-02-02T20:28:53;102018.16;;;8.45;86.51
71361;BME280;59166;48.908;1.870;2023-02-02T20:33:55;102019.00;;;8.46;85.48
71361;BME280;59166;48.908;1.870;2023-02-02T20:39:05;102014.03;;;8.43;85.87
71361;BME280;59166;48.908;1.870;2023-02-02T20:44:11;102003.44;;;8.41;86.29
71361;BME280;59166;48.908;1.870;2023-02-02T20:49:12;102002.41;;;8.36;86.48
71361;BME280;59166;48.908;1.870;2023-02-02T20:54:14;101996.41;;;8.34;86.14
71361;BME280;59166;48.908;1.870;2023-02-02T20:59:15;101986.00;;;8.30;87.61
71361;BME280;59166;48.908;1.870;2023-02-02T21:04:17;101988.94;;;8.29;86.88
71361;BME280;59166;48.908;1.870;2023-02-02T21:09:20;102003.22;;;8.29;87.35
71361;BME280;59166;48.908;1.870;2023-02-02T21:14:21;102004.47;;;8.27;86.98
71361;BME280;59166;48.908;1.870;2023-02-02T21:19:25;102000.53;;;8.23;87.29
71361;BME280;59166;48.908;1.870;2023-02-02T21:24:27;102018.09;;;8.19;87.47
71361;BME280;59166;48.908;1.870;2023-02-02T21:29:28;102019.97;;;8.18;87.50
71361;BME280;59166;48.908;1.870;2023-02-02T21:34:29;102024.91;;;8.15;88.13
71361;BME280;59166;48.908;1.870;2023-02-02T21:39:33;102031.31;;;8.14;87.50
71361;BME280;59166;48.908;1.870;2023-02-02T21:44:35;102036.91;;;8.06;88.45
71361;BME280;59166;48.908;1.870;2023-02-02T21:49:37;102041.44;;;7.99;89.21
71361;BME280;59166;48.908;1.870;2023-02-02T21:54:40;102052.38;;;7.97;89.71
71361;BME280;59166;48.908;1.870;2023-02-02T21:59:41;102042.00;;;7.94;89.90
71361;BME280;59166;48.908;1.870;2023-02-02T22:04:41;102046.97;;;7.91;89.67
71361;BME280;59166;48.908;1.870;2023-02-02T22:09:44;102048.00;;;7.83;90.51
71361;BME280;59166;48.908;1.870;2023-02-02T22:14:46;102057.31;;;7.87;89.29
71361;BME280;59166;48.908;1.870;2023-02-02T22:19:49;102063.50;;;7.88;89.98
71361;BME280;59166;48.908;1.870;2023-02-02T22:24:57;102058.56;;;7.91;89.86
71361;BME280;59166;48.908;1.870;2023-02-02T22:30:05;102067.06;;;7.95;89.41
71361;BME280;59166;48.908;1.870;2023-02-02T22:35:10;102073.28;;;7.95;88.94
71361;BME280;59166;48.908;1.870;2023-02-02T22:40:12;102069.56;;;7.96;89.79
71361;BME280;59166;48.908;1.870;2023-02-02T22:45:14;102073.28;;;7.95;90.67
71361;BME280;59166;48.908;1.870;2023-02-02T22:50:15;102067.88;;;7.89;91.69
71361;BME280;59166;48.908;1.870;2023-02-02T22:55:19;102072.03;;;7.91;91.29
71361;BME280;59166;48.908;1.870;2023-02-02T23:00:21;102064.94;;;7.84;92.18
71361;BME280;59166;48.908;1.870;2023-02-02T23:05:23;102068.47;;;7.84;91.91
71361;BME280;59166;48.908;1.870;2023-02-02T23:10:26;102076.53;;;7.84;90.90
71361;BME280;59166;48.908;1.870;2023-02-02T23:15:27;102109.22;;;7.81;92.33
71361;BME280;59166;48.908;1.870;2023-02-02T23:20:28;102119.16;;;7.80;92.73
71361;BME280;59166;48.908;1.870;2023-02-02T23:25:30;102124.13;;;7.84;92.24
71361;BME280;59166;48.908;1.870;2023-02-02T23:30:30;102121.25;;;7.85;92.36
71361;BME280;59166;48.908;1.870;2023-02-02T23:35:31;102126.63;;;7.85;92.25
71361;BME280;59166;48.908;1.870;2023-02-02T23:40:33;102131.19;;;7.85;92.07
71361;BME280;59166;48.908;1.870;2023-02-02T23:45:34;102128.06;;;7.81;92.87
71361;BME280;59166;48.908;1.870;2023-02-02T23:50:35;102126.59;;;7.78;93.53
71361;BME280;59166;48.908;1.870;2023-02-02T23:55:38;102135.28;;;7.80;94.20
